createdAt,value
2018-04-06T00:01:40.727Z,3.71
2018-04-06T00:04:08.967Z,3.61
2018-04-06T00:06:37.975Z,3.54
2018-04-06T00:09:07.369Z,3.47
2018-04-06T00:11:35.634Z,3.37
2018-04-06T00:14:03.883Z,3.44
2018-04-06T00:16:32.120Z,3.29
2018-04-06T00:19:00.432Z,3.40
2018-04-06T00:21:28.689Z,3.36
2018-04-06T00:23:57.765Z,3.33
2018-04-06T00:26:26.036Z,3.28
2018-04-06T00:28:55.068Z,3.34
2018-04-06T00:31:23.324Z,3.18
2018-04-06T00:33:51.624Z,3.15
2018-04-06T00:36:20.652Z,3.10
2018-04-06T00:38:48.914Z,3.06
2018-04-06T00:41:18.502Z,3.02
2018-04-06T00:43:46.749Z,3.09
2018-04-06T00:46:14.992Z,2.98
2018-04-06T00:48:43.295Z,3.00
2018-04-06T00:51:11.541Z,2.88
2018-04-06T00:53:48.688Z,2.81
2018-04-06T00:56:17.688Z,2.75
2018-04-06T00:58:45.937Z,2.84
2018-04-06T01:01:14.174Z,2.91
2018-04-06T01:03:43.198Z,2.87
2018-04-06T01:06:11.433Z,2.75
2018-04-06T01:08:39.676Z,2.86
2018-04-06T01:11:07.896Z,2.78
2018-04-06T01:13:36.136Z,2.74
2018-04-06T01:16:05.140Z,2.74
2018-04-06T01:18:34.351Z,2.66
2018-04-06T01:21:03.341Z,2.66
2018-04-06T01:23:31.605Z,2.63
2018-04-06T01:25:59.860Z,2.63
2018-04-06T01:28:28.112Z,2.55
2018-04-06T01:30:56.370Z,2.44
2018-04-06T01:33:24.625Z,2.39
2018-04-06T01:35:53.658Z,2.54
2018-04-06T01:38:22.652Z,2.51
2018-04-06T01:40:50.919Z,2.33
2018-04-06T01:43:19.157Z,2.45
2018-04-06T01:45:48.165Z,2.49
2018-04-06T01:48:16.404Z,2.50
2018-04-06T01:50:44.653Z,2.34
2018-04-06T01:53:12.896Z,2.33
2018-04-06T01:55:41.149Z,2.27
2018-04-06T01:58:10.142Z,2.36
2018-04-06T02:00:38.421Z,2.24
2018-04-06T02:03:06.652Z,2.24
2018-04-06T02:05:34.892Z,2.23
2018-04-06T02:08:03.128Z,2.22
2018-04-06T02:10:31.386Z,2.12
2018-04-06T02:12:59.621Z,2.24
2018-04-06T02:15:27.894Z,2.19
2018-04-06T02:17:56.125Z,2.19
2018-04-06T02:20:24.451Z,2.19
2018-04-06T02:22:53.440Z,2.07
2018-04-06T02:25:21.685Z,2.07
2018-04-06T02:27:49.920Z,1.99
2018-04-06T02:30:18.177Z,2.00
2018-04-06T02:32:46.495Z,2.11
2018-04-06T02:35:16.102Z,1.98
2018-04-06T02:37:44.341Z,1.91
2018-04-06T02:40:12.586Z,1.84
2018-04-06T02:42:40.826Z,1.83
2018-04-06T02:45:09.090Z,1.81
2018-04-06T02:47:38.084Z,1.80
2018-04-06T02:50:06.335Z,1.85
2018-04-06T02:52:34.582Z,1.82
2018-04-06T02:55:02.808Z,1.88
2018-04-06T02:57:31.058Z,1.78
2018-04-06T03:00:00.093Z,1.80
2018-04-06T03:02:28.381Z,1.72
2018-04-06T03:04:56.633Z,1.74
2018-04-06T03:07:25.872Z,1.73
2018-04-06T03:09:54.107Z,1.72
2018-04-06T03:12:22.380Z,1.78
2018-04-06T03:14:50.626Z,1.75
2018-04-06T03:17:19.630Z,1.76
2018-04-06T03:19:47.877Z,1.66
2018-04-06T03:22:16.130Z,1.70
2018-04-06T03:24:44.353Z,1.58
2018-04-06T03:27:12.616Z,1.55
2018-04-06T03:29:40.854Z,1.51
2018-04-06T03:32:09.865Z,1.54
2018-04-06T03:34:38.864Z,1.48
2018-04-06T03:37:07.885Z,1.43
2018-04-06T03:39:37.241Z,1.54
2018-04-06T03:42:06.277Z,1.59
2018-04-06T03:44:34.508Z,1.51
2018-04-06T03:47:03.593Z,1.41
2018-04-06T03:49:32.603Z,1.37
2018-04-06T03:52:01.633Z,1.39
2018-04-06T03:54:29.873Z,1.32
2018-04-06T03:56:58.761Z,1.34
2018-04-06T03:59:27.033Z,1.46
2018-04-06T04:01:55.313Z,1.35
2018-04-06T04:04:23.598Z,1.38
2018-04-06T04:06:51.884Z,1.42
2018-04-06T04:09:20.119Z,1.32
2018-04-06T04:11:48.381Z,1.20
2018-04-06T04:14:16.621Z,1.29
2018-04-06T04:16:45.608Z,1.37
2018-04-06T04:19:13.865Z,1.29
2018-04-06T04:21:42.118Z,1.36
2018-04-06T04:24:10.348Z,1.41
2018-04-06T04:26:38.601Z,1.43
2018-04-06T04:29:06.845Z,1.42
2018-04-06T04:31:35.072Z,1.41
2018-04-06T04:34:03.325Z,1.41
2018-04-06T04:36:31.601Z,1.45
2018-04-06T04:38:59.885Z,1.60
2018-04-06T04:41:28.127Z,1.49
2018-04-06T04:43:57.157Z,1.55
2018-04-06T04:46:25.450Z,1.58
2018-04-06T04:48:53.721Z,1.54
2018-04-06T04:51:22.001Z,1.59
2018-04-06T04:53:50.997Z,1.58
2018-04-06T04:56:20.004Z,1.61
2018-04-06T04:58:49.039Z,1.63
2018-04-06T05:01:17.275Z,1.57
2018-04-06T05:03:45.536Z,1.56
2018-04-06T05:06:13.791Z,1.55
2018-04-06T05:08:42.047Z,1.64
2018-04-06T05:11:10.282Z,1.59
2018-04-06T05:13:38.547Z,1.70
2018-04-06T05:16:06.862Z,1.75
2018-04-06T05:18:35.131Z,1.70
2018-04-06T05:21:04.120Z,1.75
2018-04-06T05:23:33.224Z,1.80
2018-04-06T05:26:01.525Z,1.86
2018-04-06T05:28:31.345Z,1.85
2018-04-06T05:31:00.361Z,1.99
2018-04-06T05:33:29.396Z,2.08
2018-04-06T05:35:57.676Z,2.19
2018-04-06T05:38:25.953Z,2.30
2018-04-06T05:40:55.164Z,2.45
2018-04-06T05:43:23.399Z,2.53
2018-04-06T05:45:51.732Z,3.11
2018-04-06T05:48:19.972Z,3.00
2018-04-06T05:50:48.234Z,3.17
2018-04-06T05:53:17.238Z,3.10
2018-04-06T05:55:45.714Z,3.17
2018-04-06T05:58:13.974Z,3.25
2018-04-06T06:00:42.297Z,3.40
2018-04-06T06:03:10.539Z,3.45
2018-04-06T06:05:38.792Z,3.66
2018-04-06T06:08:07.036Z,4.11
2018-04-06T06:10:35.281Z,3.98
2018-04-06T06:13:04.365Z,4.16
2018-04-06T06:15:32.639Z,4.23
2018-04-06T06:18:01.630Z,4.47
2018-04-06T06:20:29.884Z,4.56
2018-04-06T06:22:58.901Z,4.57
2018-04-06T06:25:27.202Z,4.83
2018-04-06T06:27:55.456Z,5.04
2018-04-06T06:30:23.717Z,4.80
2018-04-06T06:32:51.970Z,5.13
2018-04-06T06:35:20.281Z,5.36
2018-04-06T06:37:49.285Z,5.24
2018-04-06T06:40:18.392Z,5.52
2018-04-06T06:42:47.388Z,5.61
2018-04-06T06:45:15.702Z,5.61
2018-04-06T06:47:43.942Z,5.85
2018-04-06T06:50:12.199Z,6.05
2018-04-06T06:52:40.432Z,6.18
2018-04-06T06:55:08.676Z,6.38
2018-04-06T06:57:36.960Z,6.22
2018-04-06T07:00:05.207Z,7.04
2018-04-06T07:02:33.460Z,7.08
2018-04-06T07:05:01.704Z,7.30
2018-04-06T07:07:30.718Z,7.54
2018-04-06T07:09:59.833Z,7.42
2018-04-06T07:12:28.887Z,7.29
2018-04-06T07:14:57.188Z,7.30
2018-04-06T07:17:25.469Z,7.47
2018-04-06T07:19:53.979Z,7.38
2018-04-06T07:22:22.994Z,7.30
2018-04-06T07:24:52.016Z,7.11
2018-04-06T07:27:21.029Z,7.16
2018-04-06T07:29:49.291Z,7.13
2018-04-06T07:32:17.575Z,7.42
2018-04-06T07:34:45.829Z,7.35
2018-04-06T07:37:14.088Z,7.72
2018-04-06T07:39:42.345Z,7.60
2018-04-06T07:42:10.579Z,7.89
2018-04-06T07:44:38.821Z,8.17
2018-04-06T07:47:07.097Z,8.25
2018-04-06T07:49:35.339Z,8.35
2018-04-06T07:52:03.601Z,8.91
2018-04-06T07:54:32.611Z,8.86
2018-04-06T07:57:01.710Z,8.98
2018-04-06T07:59:29.961Z,8.95
2018-04-06T08:01:58.220Z,8.72
2018-04-06T08:04:26.481Z,9.03
2018-04-06T08:06:56.265Z,9.32
2018-04-06T08:09:24.649Z,9.50
2018-04-06T08:11:52.992Z,8.99
2018-04-06T08:14:22.002Z,8.88
2018-04-06T08:16:50.232Z,9.02
2018-04-06T08:19:18.477Z,9.04
2018-04-06T08:21:47.472Z,9.30
2018-04-06T08:24:16.581Z,9.58
2018-04-06T08:26:45.592Z,9.94
2018-04-06T08:29:14.629Z,9.61
2018-04-06T08:31:42.861Z,9.66
2018-04-06T08:34:11.182Z,9.86
2018-04-06T08:36:40.172Z,9.60
2018-04-06T08:39:09.191Z,9.57
2018-04-06T08:41:38.187Z,9.92
2018-04-06T08:44:07.994Z,10.07
2018-04-06T08:46:36.377Z,10.21
2018-04-06T08:49:04.632Z,10.27
2018-04-06T08:51:32.873Z,10.34
2018-04-06T08:54:01.141Z,10.84
2018-04-06T08:56:29.392Z,10.86
2018-04-06T08:58:57.674Z,10.93
2018-04-06T09:01:26.107Z,11.04
2018-04-06T09:03:54.477Z,10.83
2018-04-06T09:06:22.777Z,10.69
2018-04-06T09:08:51.020Z,11.06
2018-04-06T09:11:20.038Z,11.00
2018-04-06T09:13:48.324Z,11.28
2018-04-06T09:16:17.330Z,11.18
2018-04-06T09:18:46.373Z,11.42
2018-04-06T09:21:14.659Z,11.29
2018-04-06T09:23:42.912Z,11.50
2018-04-06T09:26:11.216Z,11.06
2018-04-06T09:28:40.243Z,11.42
2018-04-06T09:31:08.474Z,11.27
2018-04-06T09:33:36.749Z,11.27
2018-04-06T09:36:05.090Z,11.39
2018-04-06T09:38:33.390Z,11.46
2018-04-06T09:41:02.361Z,11.45
2018-04-06T09:43:31.385Z,11.54
2018-04-06T09:46:00.428Z,11.79
2018-04-06T09:48:28.688Z,11.50
2018-04-06T09:50:57.804Z,11.82
2018-04-06T09:53:26.072Z,11.68
2018-04-06T09:55:54.348Z,11.75
2018-04-06T09:58:23.366Z,11.80
2018-04-06T10:00:58.014Z,11.93
2018-04-06T10:03:26.290Z,12.19
2018-04-06T10:05:55.380Z,12.13
2018-04-06T10:08:23.735Z,12.76
2018-04-06T10:10:52.010Z,12.82
2018-04-06T10:13:20.249Z,12.79
2018-04-06T10:15:48.526Z,12.73
2018-04-06T10:18:16.771Z,12.56
2018-04-06T10:20:45.028Z,13.18
2018-04-06T10:23:14.417Z,12.44
2018-04-06T10:25:42.674Z,12.72
2018-04-06T10:28:10.912Z,13.00
2018-04-06T10:30:39.172Z,13.20
2018-04-06T10:33:07.505Z,12.90
2018-04-06T10:35:36.541Z,12.63
2018-04-06T10:38:04.774Z,13.04
2018-04-06T10:40:33.115Z,13.32
2018-04-06T10:43:01.323Z,13.38
2018-04-06T10:45:29.603Z,13.45
2018-04-06T10:47:57.897Z,13.30
2018-04-06T10:50:26.195Z,13.35
2018-04-06T10:52:54.459Z,13.15
2018-04-06T10:55:22.722Z,13.18
2018-04-06T10:57:50.981Z,13.21
2018-04-06T11:00:20.210Z,13.62
2018-04-06T11:02:48.485Z,13.23
2018-04-06T11:05:16.738Z,13.41
2018-04-06T11:07:45.018Z,13.52
2018-04-06T11:10:13.307Z,13.66
2018-04-06T11:12:41.532Z,14.08
2018-04-06T11:15:10.532Z,14.11
2018-04-06T11:17:38.806Z,14.68
2018-04-06T11:20:08.175Z,13.48
2018-04-06T11:22:37.240Z,14.12
2018-04-06T11:25:05.475Z,14.30
2018-04-06T11:27:34.527Z,14.40
2018-04-06T11:30:02.787Z,13.95
2018-04-06T11:32:31.080Z,13.90
2018-04-06T11:35:00.160Z,14.16
2018-04-06T11:37:28.465Z,14.64
2018-04-06T11:39:56.718Z,14.66
2018-04-06T11:42:25.018Z,14.51
2018-04-06T11:44:53.293Z,14.39
2018-04-06T11:47:21.545Z,14.32
2018-04-06T11:49:49.784Z,14.46
2018-04-06T11:52:18.065Z,14.28
2018-04-06T11:54:46.306Z,14.22
2018-04-06T11:57:14.578Z,14.32
2018-04-06T11:59:43.625Z,14.53
2018-04-06T12:02:12.611Z,14.94
2018-04-06T12:04:40.843Z,15.10
2018-04-06T12:07:09.115Z,14.80
2018-04-06T12:09:37.358Z,14.28
2018-04-06T12:12:05.619Z,14.70
2018-04-06T12:14:34.008Z,14.49
2018-04-06T12:17:02.262Z,15.18
2018-04-06T12:19:30.508Z,15.20
2018-04-06T12:21:59.544Z,15.31
2018-04-06T12:24:27.804Z,15.01
2018-04-06T12:26:56.865Z,15.38
2018-04-06T12:29:25.177Z,15.43
2018-04-06T12:31:54.213Z,15.14
2018-04-06T12:34:22.509Z,15.14
2018-04-06T12:36:50.736Z,14.86
2018-04-06T12:39:18.994Z,14.93
2018-04-06T12:41:47.247Z,15.22
2018-04-06T12:44:15.558Z,15.30
2018-04-06T12:46:44.556Z,15.30
2018-04-06T12:49:13.585Z,15.53
2018-04-06T12:51:42.599Z,15.44
2018-04-06T12:54:10.854Z,15.22
2018-04-06T12:56:39.864Z,15.12
2018-04-06T12:59:08.897Z,15.20
2018-04-06T13:01:37.133Z,15.26
2018-04-06T13:04:05.426Z,15.61
2018-04-06T13:06:33.682Z,15.40
2018-04-06T13:09:01.966Z,15.18
2018-04-06T13:11:30.210Z,15.39
2018-04-06T13:13:59.656Z,15.39
2018-04-06T13:16:28.042Z,15.38
2018-04-06T13:18:56.313Z,15.75
2018-04-06T13:21:25.357Z,15.77
2018-04-06T13:23:53.626Z,16.10
2018-04-06T13:26:21.854Z,16.03
2018-04-06T13:28:50.111Z,16.10
2018-04-06T13:31:18.357Z,15.98
2018-04-06T13:33:46.601Z,15.89
2018-04-06T13:36:14.846Z,16.20
2018-04-06T13:38:43.881Z,15.98
2018-04-06T13:41:12.121Z,15.93
2018-04-06T13:43:40.357Z,16.17
2018-04-06T13:46:08.623Z,15.91
2018-04-06T13:48:37.689Z,15.97
2018-04-06T13:51:05.946Z,16.44
2018-04-06T13:53:34.193Z,16.17
2018-04-06T13:56:03.220Z,16.32
2018-04-06T13:58:32.210Z,16.33
2018-04-06T14:01:01.326Z,16.51
2018-04-06T14:03:29.632Z,16.47
2018-04-06T14:05:57.905Z,16.29
2018-04-06T14:08:27.954Z,16.41
2018-04-06T14:10:56.226Z,16.35
2018-04-06T14:13:25.256Z,16.33
2018-04-06T14:15:53.589Z,15.96
2018-04-06T14:18:21.843Z,16.56
2018-04-06T14:20:50.104Z,16.38
2018-04-06T14:23:18.340Z,16.62
2018-04-06T14:25:46.626Z,16.21
2018-04-06T14:28:14.861Z,16.39
2018-04-06T14:30:43.892Z,16.50
2018-04-06T14:33:12.161Z,16.70
2018-04-06T14:35:41.180Z,16.40
2018-04-06T14:38:09.437Z,16.62
2018-04-06T14:40:37.699Z,16.89
2018-04-06T14:43:05.940Z,16.93
2018-04-06T14:45:34.216Z,16.54
2018-04-06T14:48:03.226Z,16.70
2018-04-06T14:50:32.271Z,16.82
2018-04-06T14:53:01.354Z,16.67
2018-04-06T14:55:30.478Z,16.78
2018-04-06T14:57:58.740Z,16.66
2018-04-06T15:00:27.737Z,16.81
2018-04-06T15:02:56.052Z,16.66
2018-04-06T15:05:24.314Z,16.96
2018-04-06T15:07:53.358Z,16.88
2018-04-06T15:10:21.605Z,17.04
2018-04-06T15:12:49.873Z,16.85
2018-04-06T15:15:18.108Z,16.90
2018-04-06T15:17:46.373Z,16.77
2018-04-06T15:20:14.646Z,16.71
2018-04-06T15:22:42.929Z,16.71
2018-04-06T15:25:11.177Z,17.00
2018-04-06T15:27:39.433Z,16.87
2018-04-06T15:30:07.721Z,16.86
2018-04-06T15:32:35.974Z,17.00
2018-04-06T15:35:04.214Z,16.99
2018-04-06T15:37:33.241Z,16.91
2018-04-06T15:40:01.507Z,16.89
2018-04-06T15:42:30.686Z,16.85
2018-04-06T15:44:58.884Z,16.95
2018-04-06T15:47:27.146Z,16.68
2018-04-06T15:49:55.393Z,16.66
2018-04-06T15:52:24.418Z,16.44
2018-04-06T15:54:52.677Z,16.83
2018-04-06T15:57:21.701Z,16.53
2018-04-06T15:59:49.984Z,16.50
2018-04-06T16:02:19.012Z,16.55
2018-04-06T16:04:47.326Z,16.59
2018-04-06T16:07:15.610Z,16.64
2018-04-06T16:09:43.851Z,16.54
2018-04-06T16:12:12.873Z,16.77
2018-04-06T16:14:41.133Z,16.49
2018-04-06T16:17:10.276Z,16.46
2018-04-06T16:19:38.541Z,16.53
2018-04-06T16:22:07.580Z,16.63
2018-04-06T16:24:35.872Z,16.42
2018-04-06T16:27:04.864Z,16.54
2018-04-06T16:29:33.180Z,16.44
2018-04-06T16:32:02.197Z,16.18
2018-04-06T16:34:30.473Z,16.18
2018-04-06T16:36:59.501Z,16.21
2018-04-06T16:39:27.788Z,15.98
2018-04-06T16:41:56.016Z,15.82
2018-04-06T16:44:24.293Z,15.86
2018-04-06T16:46:53.306Z,15.86
2018-04-06T16:49:22.349Z,15.72
2018-04-06T16:51:50.596Z,15.74
2018-04-06T16:54:19.610Z,15.68
2018-04-06T16:56:48.632Z,15.75
2018-04-06T16:59:17.806Z,15.55
2018-04-06T17:01:45.914Z,15.48
2018-04-06T17:04:15.039Z,15.38
2018-04-06T17:06:43.308Z,15.38
2018-04-06T17:09:12.338Z,15.34
2018-04-06T17:11:40.588Z,15.21
2018-04-06T17:14:08.862Z,15.01
2018-04-06T17:16:37.140Z,15.29
2018-04-06T17:19:05.520Z,16.10
2018-04-06T17:21:33.765Z,16.54
2018-04-06T17:24:03.609Z,16.29
2018-04-06T17:26:31.858Z,15.65
2018-04-06T17:29:00.119Z,15.64
2018-04-06T17:31:28.354Z,15.00
2018-04-06T17:33:57.385Z,14.70
2018-04-06T17:36:25.625Z,14.44
2018-04-06T17:38:53.897Z,14.30
2018-04-06T17:41:22.988Z,14.26
2018-04-06T17:43:51.260Z,14.05
2018-04-06T17:46:19.531Z,13.95
2018-04-06T17:48:47.795Z,13.82
2018-04-06T17:51:16.056Z,13.70
2018-04-06T17:53:44.306Z,13.61
2018-04-06T17:56:12.577Z,13.52
2018-04-06T17:58:41.620Z,13.38
2018-04-06T18:01:09.892Z,13.32
2018-04-06T18:03:38.128Z,13.16
2018-04-06T18:06:06.386Z,13.10
2018-04-06T18:08:34.629Z,13.07
2018-04-06T18:11:02.880Z,13.01
2018-04-06T18:13:31.112Z,12.97
2018-04-06T18:16:00.889Z,12.85
2018-04-06T18:18:29.141Z,12.73
2018-04-06T18:20:58.160Z,12.69
2018-04-06T18:23:26.417Z,12.67
2018-04-06T18:25:54.669Z,12.71
2018-04-06T18:28:22.948Z,12.55
2018-04-06T18:30:51.219Z,12.68
2018-04-06T18:33:19.469Z,12.57
2018-04-06T18:35:47.739Z,12.51
2018-04-06T18:38:16.002Z,12.39
2018-04-06T18:40:44.331Z,12.34
2018-04-06T18:43:12.606Z,12.30
2018-04-06T18:45:40.856Z,12.23
2018-04-06T18:48:09.116Z,12.07
2018-04-06T18:50:38.128Z,12.08
2018-04-06T18:53:06.386Z,12.13
2018-04-06T18:55:34.644Z,12.05
2018-04-06T18:58:02.939Z,11.98
2018-04-06T19:00:31.206Z,11.96
2018-04-06T19:02:59.452Z,11.87
2018-04-06T19:05:28.514Z,11.76
2018-04-06T19:07:56.755Z,11.93
2018-04-06T19:10:25.782Z,11.65
2018-04-06T19:12:54.025Z,11.62
2018-04-06T19:15:23.046Z,11.57
2018-04-06T19:17:51.325Z,11.55
2018-04-06T19:20:19.608Z,11.40
2018-04-06T19:22:47.892Z,11.43
2018-04-06T19:25:16.139Z,11.24
2018-04-06T19:27:44.404Z,11.24
2018-04-06T19:30:13.413Z,11.13
2018-04-06T19:32:42.447Z,11.19
2018-04-06T19:35:10.694Z,11.04
2018-04-06T19:37:38.958Z,10.98
2018-04-06T19:40:07.210Z,10.99
2018-04-06T19:42:35.473Z,10.92
2018-04-06T19:45:04.499Z,10.97
2018-04-06T19:47:32.774Z,10.75
2018-04-06T19:50:03.778Z,10.68
2018-04-06T19:52:32.038Z,10.79
2018-04-06T19:55:00.293Z,11.03
2018-04-06T19:57:28.562Z,10.79
2018-04-06T19:59:56.808Z,10.81
2018-04-06T20:02:25.082Z,10.64
2018-04-06T20:04:53.313Z,10.54
2018-04-06T20:07:21.616Z,10.48
2018-04-06T20:09:49.875Z,10.47
2018-04-06T20:12:18.199Z,10.46
2018-04-06T20:14:46.466Z,10.47
2018-04-06T20:17:14.805Z,10.40
2018-04-06T20:19:43.845Z,10.45
2018-04-06T20:22:12.133Z,10.44
2018-04-06T20:24:40.394Z,10.36
2018-04-06T20:27:08.647Z,10.23
2018-04-06T20:29:36.882Z,10.20
2018-04-06T20:32:05.185Z,10.19
2018-04-06T20:34:33.422Z,10.15
2018-04-06T20:37:01.677Z,10.26
2018-04-06T20:39:29.921Z,10.21
2018-04-06T20:41:58.929Z,10.05
2018-04-06T20:44:27.954Z,10.21
2018-04-06T20:46:56.207Z,10.14
2018-04-06T20:49:25.278Z,10.13
2018-04-06T20:51:53.539Z,10.02
2018-04-06T20:54:21.795Z,10.03
2018-04-06T20:56:50.088Z,9.84
2018-04-06T20:59:19.184Z,9.87
2018-04-06T21:01:47.431Z,9.76
2018-04-06T21:04:15.872Z,9.88
2018-04-06T21:06:44.259Z,9.83
2018-04-06T21:09:12.525Z,9.83
2018-04-06T21:11:40.788Z,9.86
2018-04-06T21:14:09.059Z,9.87
2018-04-06T21:16:38.043Z,9.79
2018-04-06T21:19:07.052Z,9.63
2018-04-06T21:21:36.049Z,9.66
2018-04-06T21:24:04.312Z,9.71
2018-04-06T21:26:32.567Z,9.59
2018-04-06T21:29:00.809Z,9.47
2018-04-06T21:31:29.140Z,9.61
2018-04-06T21:33:58.129Z,9.59
2018-04-06T21:36:27.152Z,9.61
2018-04-06T21:38:55.393Z,9.70
2018-04-06T21:41:23.637Z,9.62
2018-04-06T21:43:51.886Z,9.57
2018-04-06T21:46:20.128Z,9.47
2018-04-06T21:48:48.401Z,9.40
2018-04-06T21:51:16.641Z,9.33
2018-04-06T21:53:45.731Z,9.40
2018-04-06T21:56:13.985Z,9.33
2018-04-06T21:58:42.283Z,9.45
2018-04-06T22:01:10.553Z,9.43
2018-04-06T22:03:38.818Z,9.40
2018-04-06T22:06:07.819Z,9.40
2018-04-06T22:08:36.889Z,9.34
2018-04-06T22:11:05.112Z,9.23
2018-04-06T22:13:33.400Z,9.35
2018-04-06T22:16:02.628Z,9.24
2018-04-06T22:18:32.560Z,9.30
2018-04-06T22:21:01.592Z,9.12
2018-04-06T22:23:29.897Z,9.03
2018-04-06T22:25:58.923Z,9.24
2018-04-06T22:28:27.164Z,9.31
2018-04-06T22:30:55.397Z,9.17
2018-04-06T22:33:23.633Z,9.29
2018-04-06T22:35:51.914Z,9.16
2018-04-06T22:38:20.928Z,9.16
2018-04-06T22:40:49.946Z,9.21
2018-04-06T22:43:19.320Z,8.95
2018-04-06T22:45:47.579Z,9.11
2018-04-06T22:48:15.850Z,8.94
2018-04-06T22:50:44.122Z,8.93
2018-04-06T22:53:12.416Z,8.88
2018-04-06T22:55:40.658Z,8.99
2018-04-06T22:58:08.894Z,8.83
2018-04-06T23:00:37.145Z,8.79
2018-04-06T23:03:05.398Z,8.82
2018-04-06T23:05:33.667Z,9.00
2018-04-06T23:08:01.905Z,8.85
2018-04-06T23:10:30.164Z,8.75
2018-04-06T23:12:58.421Z,8.86
2018-04-06T23:15:26.689Z,8.70
2018-04-06T23:17:54.937Z,8.79
2018-04-06T23:20:23.207Z,8.74
2018-04-06T23:22:51.438Z,8.66
2018-04-06T23:25:19.688Z,8.66
2018-04-06T23:27:48.687Z,8.64
2018-04-06T23:30:16.960Z,8.73
2018-04-06T23:32:45.971Z,8.61
2018-04-06T23:35:14.999Z,8.52
2018-04-06T23:37:43.269Z,8.44
2018-04-06T23:40:12.309Z,8.69
2018-04-06T23:42:40.539Z,8.42
2018-04-06T23:45:09.535Z,8.38
2018-04-06T23:47:37.814Z,8.33
2018-04-06T23:50:06.042Z,8.27
2018-04-06T23:52:34.293Z,8.36
2018-04-06T23:55:02.530Z,8.24
2018-04-06T23:57:30.804Z,8.25
2018-04-06T23:59:59.800Z,8.16
